createdAt,value
2023-02-18T00:01:01.831Z,100.00
2023-02-18T00:03:30.258Z,100.00
2023-02-18T00:05:57.699Z,100.00
2023-02-18T00:08:25.116Z,100.00
2023-02-18T00:10:53.187Z,100.00
2023-02-18T00:13:20.478Z,100.00
2023-02-18T00:15:47.888Z,100.00
2023-02-18T00:18:16.084Z,100.00
2023-02-18T00:20:43.401Z,100.00
2023-02-18T00:23:10.801Z,100.00
2023-02-18T00:25:38.154Z,100.00
2023-02-18T00:28:05.610Z,100.00
2023-02-18T00:30:33.304Z,100.00
2023-02-18T00:33:00.638Z,100.00
2023-02-18T00:35:28.032Z,100.00
2023-02-18T00:37:55.450Z,100.00
2023-02-18T00:40:22.732Z,100.00
2023-02-18T00:42:50.071Z,100.00
2023-02-18T00:45:17.478Z,100.00
2023-02-18T00:47:44.830Z,100.00
2023-02-18T00:50:12.318Z,100.00
2023-02-18T00:52:39.696Z,100.00
2023-02-18T00:55:08.093Z,100.00
2023-02-18T00:57:35.451Z,100.00
2023-02-18T01:00:05.051Z,100.00
2023-02-18T01:02:32.505Z,100.00
2023-02-18T01:04:59.945Z,100.00
2023-02-18T01:07:27.547Z,100.00
2023-02-18T01:09:54.941Z,100.00
2023-02-18T01:12:22.229Z,100.00
2023-02-18T01:14:49.545Z,100.00
2023-02-18T01:17:16.948Z,100.00
2023-02-18T01:19:44.364Z,100.00
2023-02-18T01:22:11.849Z,100.00
2023-02-18T01:24:39.187Z,100.00
2023-02-18T01:27:06.524Z,100.00
2023-02-18T01:29:35.115Z,100.00
2023-02-18T01:32:02.632Z,100.00
2023-02-18T01:34:30.027Z,100.00
2023-02-18T01:36:59.711Z,100.00
2023-02-18T01:39:27.671Z,100.00
2023-02-18T01:41:55.134Z,100.00
2023-02-18T01:44:25.252Z,100.00
2023-02-18T01:46:52.908Z,100.00
2023-02-18T01:49:29.082Z,100.00
2023-02-18T01:52:17.680Z,100.00
2023-02-18T01:54:54.583Z,100.00
2023-02-18T01:57:35.757Z,100.00
2023-02-18T02:00:12.116Z,100.00
2023-02-18T02:02:49.449Z,100.00
2023-02-18T02:05:17.109Z,100.00
2023-02-18T02:07:45.940Z,100.00
2023-02-18T02:10:14.552Z,100.00
2023-02-18T02:13:20.301Z,100.00
2023-02-18T02:15:55.619Z,100.00
2023-02-18T02:18:37.028Z,100.00
2023-02-18T02:21:25.358Z,100.00
2023-02-18T02:24:03.714Z,100.00
2023-02-18T02:26:49.607Z,100.00
2023-02-18T02:29:19.751Z,100.00
2023-02-18T02:31:59.283Z,100.00
2023-02-18T02:34:45.040Z,100.00
2023-02-18T02:37:17.956Z,100.00
2023-02-18T02:40:03.481Z,100.00
2023-02-18T02:42:51.100Z,100.00
2023-02-18T02:45:29.624Z,100.00
2023-02-18T02:48:02.697Z,100.00
2023-02-18T02:50:46.199Z,100.00
2023-02-18T02:53:20.284Z,100.00
2023-02-18T02:55:47.828Z,100.00
2023-02-18T02:58:19.778Z,100.00
2023-02-18T03:01:02.638Z,100.00
2023-02-18T03:03:48.825Z,100.00
2023-02-18T03:06:43.526Z,100.00
2023-02-18T03:09:14.181Z,100.00
2023-02-18T03:12:38.526Z,100.00
2023-02-18T03:15:24.684Z,100.00
2023-02-18T03:17:54.684Z,100.00
2023-02-18T03:20:28.875Z,100.00
2023-02-18T03:22:58.989Z,100.00
2023-02-18T03:25:26.901Z,100.00
2023-02-18T03:27:58.155Z,100.00
2023-02-18T03:30:31.405Z,100.00
2023-02-18T03:33:02.058Z,100.00
2023-02-18T03:35:29.733Z,100.00
2023-02-18T03:38:04.517Z,100.00
2023-02-18T03:40:32.167Z,100.00
2023-02-18T03:43:01.650Z,100.00
2023-02-18T03:45:29.361Z,100.00
2023-02-18T03:47:56.864Z,100.00
2023-02-18T03:50:24.744Z,100.00
2023-02-18T03:52:52.192Z,100.00
2023-02-18T03:55:19.623Z,100.00
2023-02-18T03:57:46.996Z,100.00
2023-02-18T04:00:14.736Z,100.00
2023-02-18T04:02:42.679Z,100.00
2023-02-18T04:05:10.348Z,100.00
2023-02-18T04:07:37.937Z,100.00
2023-02-18T04:10:06.455Z,100.00
2023-02-18T04:12:33.961Z,100.00
2023-02-18T04:15:01.331Z,100.00
2023-02-18T04:17:28.789Z,100.00
2023-02-18T04:19:56.129Z,100.00
2023-02-18T04:22:23.501Z,100.00
2023-02-18T04:24:50.864Z,100.00
2023-02-18T04:27:18.204Z,100.00
2023-02-18T04:29:45.798Z,100.00
2023-02-18T04:32:13.196Z,100.00
2023-02-18T04:34:40.628Z,100.00
2023-02-18T04:37:07.975Z,100.00
2023-02-18T04:39:35.462Z,100.00
2023-02-18T04:42:08.789Z,100.00
2023-02-18T04:44:37.251Z,100.00
2023-02-18T04:47:05.872Z,100.00
2023-02-18T04:49:33.676Z,100.00
2023-02-18T04:52:01.043Z,100.00
2023-02-18T04:54:28.430Z,100.00
2023-02-18T04:56:55.872Z,100.00
2023-02-18T04:59:23.260Z,100.00
2023-02-18T05:01:50.768Z,100.00
2023-02-18T05:04:18.308Z,100.00
2023-02-18T05:06:45.747Z,100.00
2023-02-18T05:09:13.390Z,100.00
2023-02-18T05:11:41.639Z,100.00
2023-02-18T05:14:09.011Z,100.00
2023-02-18T05:16:36.617Z,100.00
2023-02-18T05:19:03.998Z,100.00
2023-02-18T05:21:31.477Z,100.00
2023-02-18T05:23:58.923Z,100.00
2023-02-18T05:26:26.432Z,100.00
2023-02-18T05:28:53.846Z,100.00
2023-02-18T05:31:21.268Z,100.00
2023-02-18T05:33:48.703Z,100.00
2023-02-18T05:36:16.189Z,100.00
2023-02-18T05:38:43.592Z,100.00
2023-02-18T05:41:11.012Z,100.00
2023-02-18T05:43:56.816Z,100.00
2023-02-18T05:46:24.470Z,100.00
2023-02-18T05:48:51.809Z,100.00
2023-02-18T05:51:19.306Z,100.00
2023-02-18T05:53:46.608Z,100.00
2023-02-18T05:56:13.991Z,100.00
2023-02-18T05:58:41.358Z,100.00
2023-02-18T06:01:08.830Z,100.00
2023-02-18T06:03:36.175Z,100.00
2023-02-18T06:06:03.827Z,100.00
2023-02-18T06:08:31.220Z,100.00
2023-02-18T06:10:58.582Z,100.00
2023-02-18T06:13:25.987Z,100.00
2023-02-18T06:15:54.099Z,100.00
2023-02-18T06:18:22.017Z,100.00
2023-02-18T06:20:49.651Z,100.00
2023-02-18T06:23:17.203Z,100.00
2023-02-18T06:25:44.629Z,100.00
2023-02-18T06:28:11.979Z,100.00
2023-02-18T06:30:39.375Z,100.00
2023-02-18T06:33:06.777Z,100.00
2023-02-18T06:35:35.000Z,100.00
2023-02-18T06:38:02.480Z,100.00
2023-02-18T06:40:29.839Z,100.00
2023-02-18T06:42:57.237Z,100.00
2023-02-18T06:45:24.580Z,100.00
2023-02-18T06:47:51.921Z,100.00
2023-02-18T06:50:19.569Z,100.00
2023-02-18T06:52:47.031Z,100.00
2023-02-18T06:55:14.386Z,100.00
2023-02-18T06:57:41.800Z,100.00
2023-02-18T07:00:10.410Z,100.00
2023-02-18T07:02:37.933Z,100.00
2023-02-18T07:05:05.833Z,100.00
2023-02-18T07:07:33.278Z,100.00
2023-02-18T07:10:00.786Z,100.00
2023-02-18T07:12:28.537Z,100.00
2023-02-18T07:14:55.844Z,100.00
2023-02-18T07:17:23.194Z,100.00
2023-02-18T07:19:50.613Z,100.00
2023-02-18T07:22:18.186Z,100.00
2023-02-18T07:24:45.605Z,100.00
2023-02-18T07:27:13.105Z,100.00
2023-02-18T07:29:40.527Z,100.00
2023-02-18T07:32:07.935Z,100.00
2023-02-18T07:34:35.335Z,100.00
2023-02-18T07:37:02.843Z,100.00
2023-02-18T07:39:30.166Z,100.00
2023-02-18T07:41:57.481Z,100.00
2023-02-18T07:44:27.587Z,100.00
2023-02-18T07:46:54.920Z,100.00
2023-02-18T07:49:22.812Z,100.00
2023-02-18T07:51:50.780Z,100.00
2023-02-18T07:54:18.467Z,100.00
2023-02-18T07:56:46.325Z,100.00
2023-02-18T07:59:14.198Z,100.00
2023-02-18T08:01:44.078Z,100.00
2023-02-18T08:04:12.274Z,100.00
2023-02-18T08:06:41.618Z,100.00
2023-02-18T08:09:09.544Z,100.00
2023-02-18T08:11:36.964Z,100.00
2023-02-18T08:14:04.388Z,100.00
2023-02-18T08:16:31.746Z,100.00
2023-02-18T08:18:59.090Z,100.00
2023-02-18T08:21:26.837Z,100.00
2023-02-18T08:23:54.446Z,100.00
2023-02-18T08:26:21.858Z,100.00
2023-02-18T08:28:49.705Z,100.00
2023-02-18T08:31:23.135Z,100.00
2023-02-18T08:33:50.986Z,100.00
2023-02-18T08:36:18.751Z,100.00
2023-02-18T08:38:46.236Z,100.00
2023-02-18T08:41:14.563Z,100.00
2023-02-18T08:43:42.677Z,100.00
2023-02-18T08:46:16.528Z,100.00
2023-02-18T08:48:52.267Z,100.00
2023-02-18T08:51:21.777Z,100.00
2023-02-18T08:53:49.834Z,100.00
2023-02-18T08:56:17.812Z,100.00
2023-02-18T08:58:45.487Z,100.00
2023-02-18T09:01:13.747Z,100.00
2023-02-18T09:03:41.372Z,100.00
2023-02-18T09:06:09.379Z,100.00
2023-02-18T09:08:37.260Z,100.00
2023-02-18T09:11:05.136Z,100.00
2023-02-18T09:13:33.426Z,100.00
2023-02-18T09:16:06.994Z,100.00
2023-02-18T09:18:37.787Z,100.00
2023-02-18T09:21:07.016Z,100.00
2023-02-18T09:23:35.050Z,100.00
2023-02-18T09:26:06.110Z,100.00
2023-02-18T09:28:34.196Z,100.00
2023-02-18T09:31:13.747Z,100.00
2023-02-18T09:33:45.810Z,100.00
2023-02-18T09:36:13.975Z,100.00
2023-02-18T09:38:41.300Z,100.00
2023-02-18T09:41:28.284Z,100.00
2023-02-18T09:44:09.706Z,100.00
2023-02-18T09:46:58.878Z,100.00
2023-02-18T09:49:28.202Z,100.00
2023-02-18T09:51:56.641Z,100.00
2023-02-18T09:54:24.359Z,98.39
2023-02-18T09:56:52.749Z,96.67
2023-02-18T09:59:23.218Z,93.77
2023-02-18T10:01:52.884Z,92.08
2023-02-18T10:04:30.215Z,91.65
2023-02-18T10:06:58.110Z,90.16
2023-02-18T10:09:37.192Z,87.59
2023-02-18T10:12:17.585Z,88.15
2023-02-18T10:14:51.991Z,90.46
2023-02-18T10:17:19.762Z,92.12
2023-02-18T10:19:48.666Z,95.13
2023-02-18T10:22:17.349Z,96.42
2023-02-18T10:24:54.749Z,97.23
2023-02-18T10:27:42.299Z,97.60
2023-02-18T10:30:15.638Z,99.25
2023-02-18T10:32:46.405Z,99.90
2023-02-18T10:35:22.777Z,99.78
2023-02-18T10:38:20.790Z,99.94
2023-02-18T10:40:48.079Z,100.00
2023-02-18T10:43:23.765Z,100.00
2023-02-18T10:46:17.889Z,100.00
2023-02-18T10:48:48.397Z,100.00
2023-02-18T10:51:19.967Z,100.00
2023-02-18T10:53:51.327Z,100.00
2023-02-18T10:56:43.667Z,98.93
2023-02-18T10:59:19.793Z,99.14
2023-02-18T11:02:04.182Z,99.65
2023-02-18T11:04:42.695Z,100.00
2023-02-18T11:07:14.959Z,100.00
2023-02-18T11:09:48.153Z,100.00
2023-02-18T11:12:24.825Z,100.00
2023-02-18T11:15:24.967Z,100.00
2023-02-18T11:17:55.417Z,100.00
2023-02-18T11:20:30.198Z,100.00
2023-02-18T11:23:07.503Z,100.00
2023-02-18T11:25:37.025Z,100.00
2023-02-18T11:28:28.203Z,100.00
2023-02-18T11:30:58.613Z,100.00
2023-02-18T11:33:56.671Z,100.00
2023-02-18T11:36:33.030Z,100.00
2023-02-18T11:39:08.182Z,100.00
2023-02-18T11:41:44.418Z,99.67
2023-02-18T11:44:36.103Z,99.69
2023-02-18T11:47:04.806Z,99.07
2023-02-18T11:49:34.779Z,99.36
2023-02-18T11:52:11.012Z,98.77
2023-02-18T11:54:38.350Z,98.64
2023-02-18T11:57:10.105Z,99.70
2023-02-18T11:59:39.698Z,100.00
2023-02-18T12:02:27.842Z,100.00
2023-02-18T12:05:25.180Z,100.00
2023-02-18T12:08:00.312Z,100.00
2023-02-18T12:10:43.236Z,100.00
2023-02-18T12:13:36.783Z,100.00
2023-02-18T12:16:23.320Z,100.00
2023-02-18T12:19:10.398Z,100.00
2023-02-18T12:22:19.832Z,100.00
2023-02-18T12:25:25.201Z,100.00
2023-02-18T12:28:29.693Z,100.00
2023-02-18T12:31:19.067Z,100.00
2023-02-18T12:34:12.778Z,100.00
2023-02-18T12:36:46.041Z,100.00
2023-02-18T12:39:35.978Z,100.00
2023-02-18T12:42:41.044Z,100.00
2023-02-18T12:45:27.348Z,100.00
2023-02-18T12:48:13.293Z,100.00
2023-02-18T12:50:49.425Z,100.00
2023-02-18T12:53:16.799Z,100.00
2023-02-18T12:56:05.544Z,99.65
2023-02-18T12:58:35.930Z,99.26
2023-02-18T13:01:35.555Z,99.84
2023-02-18T13:04:14.908Z,98.91
2023-02-18T13:07:17.704Z,98.56
2023-02-18T13:09:54.109Z,96.66
2023-02-18T13:12:36.250Z,95.65
2023-02-18T13:15:14.839Z,96.77
2023-02-18T13:17:43.394Z,97.43
2023-02-18T13:20:38.639Z,98.65
2023-02-18T13:23:06.855Z,98.85
2023-02-18T13:25:37.775Z,98.25
2023-02-18T13:28:23.869Z,97.51
2023-02-18T13:31:16.163Z,97.97
2023-02-18T13:33:52.404Z,98.42
2023-02-18T13:36:34.708Z,98.79
2023-02-18T13:39:02.188Z,100.00
2023-02-18T13:41:30.019Z,100.00
2023-02-18T13:43:57.499Z,100.00
2023-02-18T13:46:25.851Z,100.00
2023-02-18T13:49:13.356Z,100.00
2023-02-18T13:51:42.121Z,100.00
2023-02-18T13:54:28.923Z,100.00
2023-02-18T13:57:03.879Z,100.00
2023-02-18T13:59:44.939Z,100.00
2023-02-18T14:02:21.582Z,100.00
2023-02-18T14:04:56.140Z,100.00
2023-02-18T14:07:35.924Z,100.00
2023-02-18T14:10:31.661Z,100.00
2023-02-18T14:12:59.056Z,100.00
2023-02-18T14:15:26.481Z,100.00
2023-02-18T14:18:12.787Z,100.00
2023-02-18T14:20:40.146Z,100.00
2023-02-18T14:23:19.199Z,100.00
2023-02-18T14:26:05.213Z,100.00
2023-02-18T14:28:38.527Z,100.00
2023-02-18T14:31:34.258Z,100.00
2023-02-18T14:34:04.748Z,100.00
2023-02-18T14:36:49.724Z,100.00
2023-02-18T14:39:29.352Z,100.00
2023-02-18T14:42:13.835Z,100.00
2023-02-18T14:44:54.073Z,100.00
2023-02-18T14:47:27.273Z,100.00
2023-02-18T14:49:59.936Z,100.00
2023-02-18T14:53:05.714Z,100.00
2023-02-18T14:55:35.848Z,100.00
2023-02-18T14:58:27.608Z,100.00
2023-02-18T15:00:55.071Z,100.00
2023-02-18T15:03:22.713Z,100.00
2023-02-18T15:05:52.935Z,100.00
2023-02-18T15:08:25.613Z,100.00
2023-02-18T15:10:59.149Z,100.00
2023-02-18T15:13:27.580Z,100.00
2023-02-18T15:16:08.945Z,100.00
2023-02-18T15:18:48.705Z,100.00
2023-02-18T15:21:22.487Z,100.00
2023-02-18T15:23:49.990Z,100.00
2023-02-18T15:26:17.492Z,100.00
2023-02-18T15:29:05.712Z,100.00
2023-02-18T15:31:38.757Z,100.00
2023-02-18T15:34:37.768Z,100.00
2023-02-18T15:37:07.520Z,100.00
2023-02-18T15:39:38.638Z,100.00
2023-02-18T15:42:33.613Z,100.00
2023-02-18T15:45:16.045Z,100.00
2023-02-18T15:47:44.746Z,100.00
2023-02-18T15:50:18.733Z,100.00
2023-02-18T15:52:46.285Z,100.00
2023-02-18T15:55:29.043Z,100.00
2023-02-18T15:57:56.848Z,100.00
2023-02-18T16:00:37.383Z,100.00
2023-02-18T16:03:15.996Z,100.00
2023-02-18T16:05:43.518Z,100.00
2023-02-18T16:08:17.159Z,100.00
2023-02-18T16:10:47.959Z,100.00
2023-02-18T16:13:17.373Z,100.00
2023-02-18T16:15:47.353Z,100.00
2023-02-18T16:18:39.744Z,100.00
2023-02-18T16:21:25.964Z,100.00
2023-02-18T16:23:59.890Z,100.00
2023-02-18T16:26:42.206Z,100.00
2023-02-18T16:29:15.149Z,100.00
2023-02-18T16:31:43.329Z,100.00
2023-02-18T16:34:10.736Z,100.00
2023-02-18T16:36:58.033Z,100.00
2023-02-18T16:39:25.486Z,100.00
2023-02-18T16:41:52.839Z,100.00
2023-02-18T16:44:20.192Z,100.00
2023-02-18T16:46:47.593Z,100.00
2023-02-18T16:49:15.201Z,100.00
2023-02-18T16:51:42.868Z,100.00
2023-02-18T16:54:13.941Z,100.00
2023-02-18T16:56:41.466Z,100.00
2023-02-18T16:59:08.854Z,100.00
2023-02-18T17:01:44.007Z,100.00
2023-02-18T17:04:13.670Z,100.00
2023-02-18T17:06:41.516Z,100.00
2023-02-18T17:09:17.075Z,100.00
2023-02-18T17:11:45.412Z,100.00
2023-02-18T17:14:15.355Z,100.00
2023-02-18T17:16:42.719Z,100.00
2023-02-18T17:19:10.104Z,100.00
2023-02-18T17:21:37.493Z,100.00
2023-02-18T17:24:05.460Z,100.00
2023-02-18T17:26:32.782Z,100.00
2023-02-18T17:29:00.892Z,100.00
2023-02-18T17:31:30.845Z,100.00
2023-02-18T17:34:01.325Z,100.00
2023-02-18T17:36:28.711Z,100.00
2023-02-18T17:38:56.454Z,100.00
2023-02-18T17:41:23.782Z,100.00
2023-02-18T17:43:51.137Z,100.00
2023-02-18T17:46:19.525Z,100.00
2023-02-18T17:48:47.839Z,100.00
2023-02-18T17:51:22.199Z,100.00
2023-02-18T17:53:49.574Z,100.00
2023-02-18T17:56:16.957Z,100.00
2023-02-18T17:58:46.359Z,100.00
2023-02-18T18:01:14.229Z,100.00
2023-02-18T18:03:41.759Z,100.00
2023-02-18T18:06:17.062Z,100.00
2023-02-18T18:08:44.500Z,100.00
2023-02-18T18:11:18.693Z,100.00
2023-02-18T18:13:46.609Z,100.00
2023-02-18T18:16:15.704Z,100.00
2023-02-18T18:18:43.340Z,100.00
2023-02-18T18:21:23.598Z,100.00
2023-02-18T18:23:51.361Z,100.00
2023-02-18T18:26:18.723Z,100.00
2023-02-18T18:28:46.067Z,100.00
2023-02-18T18:31:18.554Z,100.00
2023-02-18T18:33:51.374Z,100.00
2023-02-18T18:36:23.956Z,100.00
2023-02-18T18:38:51.590Z,100.00
2023-02-18T18:41:21.389Z,100.00
2023-02-18T18:43:49.589Z,100.00
2023-02-18T18:46:17.624Z,100.00
2023-02-18T18:48:45.482Z,100.00
2023-02-18T18:51:25.123Z,100.00
2023-02-18T18:53:52.524Z,100.00
2023-02-18T18:56:19.842Z,100.00
2023-02-18T18:58:47.482Z,100.00
2023-02-18T19:01:22.549Z,100.00
2023-02-18T19:03:50.109Z,100.00
2023-02-18T19:06:17.914Z,100.00
2023-02-18T19:08:46.645Z,100.00
2023-02-18T19:11:14.756Z,100.00
2023-02-18T19:13:42.279Z,100.00
2023-02-18T19:16:18.373Z,100.00
2023-02-18T19:18:46.178Z,100.00
2023-02-18T19:21:13.659Z,100.00
2023-02-18T19:23:41.093Z,100.00
2023-02-18T19:26:09.260Z,100.00
2023-02-18T19:28:37.110Z,100.00
2023-02-18T19:31:09.696Z,100.00
2023-02-18T19:33:39.129Z,100.00
2023-02-18T19:36:10.882Z,100.00
2023-02-18T19:38:38.769Z,100.00
2023-02-18T19:41:14.168Z,100.00
2023-02-18T19:43:42.786Z,100.00
2023-02-18T19:46:11.929Z,100.00
2023-02-18T19:48:39.633Z,100.00
2023-02-18T19:51:08.395Z,100.00
2023-02-18T19:53:36.109Z,100.00
2023-02-18T19:56:07.327Z,100.00
2023-02-18T19:58:35.471Z,100.00
2023-02-18T20:01:03.072Z,100.00
2023-02-18T20:03:30.454Z,100.00
2023-02-18T20:05:57.846Z,100.00
2023-02-18T20:08:25.189Z,100.00
2023-02-18T20:10:59.274Z,100.00
2023-02-18T20:13:27.107Z,100.00
2023-02-18T20:15:54.622Z,100.00
2023-02-18T20:18:21.999Z,100.00
2023-02-18T20:20:50.546Z,100.00
2023-02-18T20:23:17.949Z,100.00
2023-02-18T20:25:47.570Z,100.00
2023-02-18T20:28:15.126Z,100.00
2023-02-18T20:30:43.029Z,100.00
2023-02-18T20:33:10.618Z,100.00
2023-02-18T20:35:38.165Z,100.00
2023-02-18T20:38:05.051Z,100.00
2023-02-18T20:40:32.487Z,100.00
2023-02-18T20:42:59.458Z,100.00
2023-02-18T20:45:26.549Z,100.00
2023-02-18T20:47:53.560Z,100.00
2023-02-18T20:50:21.789Z,100.00
2023-02-18T20:52:48.804Z,100.00
2023-02-18T20:55:15.933Z,100.00
2023-02-18T20:57:42.976Z,100.00
2023-02-18T21:00:10.982Z,100.00
2023-02-18T21:02:38.017Z,100.00
2023-02-18T21:05:05.709Z,100.00
2023-02-18T21:07:33.109Z,100.00
2023-02-18T21:10:00.065Z,100.00
2023-02-18T21:12:27.058Z,100.00
2023-02-18T21:14:53.978Z,100.00
2023-02-18T21:17:22.077Z,100.00
2023-02-18T21:19:49.029Z,100.00
2023-02-18T21:22:15.984Z,100.00
2023-02-18T21:24:43.025Z,100.00
2023-02-18T21:27:10.734Z,100.00
2023-02-18T21:29:37.678Z,100.00
2023-02-18T21:32:05.015Z,100.00
2023-02-18T21:34:32.074Z,100.00
2023-02-18T21:36:59.056Z,100.00
2023-02-18T21:39:26.055Z,100.00
2023-02-18T21:41:53.081Z,100.00
2023-02-18T21:44:21.553Z,100.00
2023-02-18T21:46:51.879Z,100.00
2023-02-18T21:49:18.816Z,100.00
2023-02-18T21:51:57.170Z,100.00
2023-02-18T21:54:30.992Z,100.00
2023-02-18T21:57:00.061Z,100.00
2023-02-18T21:59:29.343Z,100.00
2023-02-18T22:01:59.868Z,100.00
2023-02-18T22:04:28.959Z,100.00
2023-02-18T22:06:55.915Z,100.00
2023-02-18T22:09:23.984Z,100.00
2023-02-18T22:11:51.617Z,100.00
2023-02-18T22:14:18.871Z,100.00
2023-02-18T22:16:46.001Z,100.00
2023-02-18T22:19:14.841Z,100.00
2023-02-18T22:21:42.634Z,100.00
2023-02-18T22:24:12.508Z,100.00
2023-02-18T22:26:40.105Z,100.00
2023-02-18T22:29:07.511Z,100.00
2023-02-18T22:31:34.593Z,100.00
2023-02-18T22:34:01.633Z,100.00
2023-02-18T22:36:29.425Z,100.00
2023-02-18T22:38:58.260Z,100.00
2023-02-18T22:41:27.357Z,100.00
2023-02-18T22:43:57.474Z,100.00
2023-02-18T22:46:25.101Z,100.00
2023-02-18T22:48:55.316Z,100.00
2023-02-18T22:51:31.212Z,100.00
2023-02-18T22:54:00.377Z,100.00
2023-02-18T22:56:29.622Z,100.00
2023-02-18T22:58:58.301Z,100.00
2023-02-18T23:01:33.201Z,100.00
2023-02-18T23:04:14.488Z,100.00
2023-02-18T23:06:43.554Z,100.00
2023-02-18T23:09:20.073Z,100.00
2023-02-18T23:11:51.223Z,100.00
2023-02-18T23:14:18.852Z,100.00
2023-02-18T23:17:12.522Z,100.00
2023-02-18T23:19:51.488Z,100.00
2023-02-18T23:22:35.436Z,100.00
2023-02-18T23:25:02.619Z,100.00
2023-02-18T23:27:30.311Z,100.00
2023-02-18T23:29:57.544Z,100.00
2023-02-18T23:32:24.976Z,100.00
2023-02-18T23:34:52.528Z,100.00
2023-02-18T23:37:40.343Z,100.00
2023-02-18T23:40:09.151Z,100.00
2023-02-18T23:42:36.134Z,100.00
2023-02-18T23:45:03.157Z,100.00
2023-02-18T23:47:30.141Z,100.00
2023-02-18T23:49:57.067Z,100.00
2023-02-18T23:52:24.047Z,100.00
2023-02-18T23:54:51.148Z,100.00
2023-02-18T23:57:18.069Z,100.00
2023-02-18T23:59:45.469Z,100.00
